sensor_id;sensor_type;location;lat;lon;timestamp;temperature;humidity
61641;HTU21D;62201;49.966;8.342;2022-11-15T00:01:19;7.54;107.08
61641;HTU21D;62201;49.966;8.342;2022-11-15T00:03:45;7.57;107.27
61641;HTU21D;62201;49.966;8.342;2022-11-15T00:06:11;7.63;107.40
61641;HTU21D;62201;49.966;8.342;2022-11-15T00:08:36;7.67;107.56
61641;HTU21D;62201;49.966;8.342;2022-11-15T00:11:02;7.71;107.59
61641;HTU21D;62201;49.966;8.342;2022-11-15T00:13:29;7.75;107.80
61641;HTU21D;62201;49.966;8.342;2022-11-15T00:16:00;7.82;107.88
61641;HTU21D;62201;49.966;8.342;2022-11-15T00:18:25;7.88;107.82
61641;HTU21D;62201;49.966;8.342;2022-11-15T00:20:51;7.94;107.69
61641;HTU21D;62201;49.966;8.342;2022-11-15T00:23:16;7.99;107.65
61641;HTU21D;62201;49.966;8.342;2022-11-15T00:25:41;8.04;107.62
61641;HTU21D;62201;49.966;8.342;2022-11-15T00:28:07;8.08;107.35
61641;HTU21D;62201;49.966;8.342;2022-11-15T00:30:32;8.11;107.24
61641;HTU21D;62201;49.966;8.342;2022-11-15T00:33:05;8.12;106.92
61641;HTU21D;62201;49.966;8.342;2022-11-15T00:35:34;8.12;106.88
61641;HTU21D;62201;49.966;8.342;2022-11-15T00:38:00;8.14;106.93
61641;HTU21D;62201;49.966;8.342;2022-11-15T00:40:26;8.14;106.85
61641;HTU21D;62201;49.966;8.342;2022-11-15T00:42:52;8.15;106.85
61641;HTU21D;62201;49.966;8.342;2022-11-15T00:45:17;8.16;106.75
61641;HTU21D;62201;49.966;8.342;2022-11-15T00:47:46;8.14;106.43
61641;HTU21D;62201;49.966;8.342;2022-11-15T00:50:12;8.14;106.47
61641;HTU21D;62201;49.966;8.342;2022-11-15T00:52:37;8.16;106.60
61641;HTU21D;62201;49.966;8.342;2022-11-15T00:55:03;8.15;106.59
61641;HTU21D;62201;49.966;8.342;2022-11-15T00:57:28;8.15;106.53
61641;HTU21D;62201;49.966;8.342;2022-11-15T00:59:53;8.11;106.27
61641;HTU21D;62201;49.966;8.342;2022-11-15T01:02:19;8.08;106.23
61641;HTU21D;62201;49.966;8.342;2022-11-15T01:04:44;8.07;106.24
61641;HTU21D;62201;49.966;8.342;2022-11-15T01:07:10;8.04;106.28
61641;HTU21D;62201;49.966;8.342;2022-11-15T01:09:35;8.03;106.39
61641;HTU21D;62201;49.966;8.342;2022-11-15T01:12:00;8.04;106.56
61641;HTU21D;62201;49.966;8.342;2022-11-15T01:14:26;8.05;106.68
61641;HTU21D;62201;49.966;8.342;2022-11-15T01:16:51;8.05;106.61
61641;HTU21D;62201;49.966;8.342;2022-11-15T01:19:17;8.05;106.75
61641;HTU21D;62201;49.966;8.342;2022-11-15T01:21:42;8.05;106.64
61641;HTU21D;62201;49.966;8.342;2022-11-15T01:24:11;8.07;106.72
61641;HTU21D;62201;49.966;8.342;2022-11-15T01:26:37;8.07;106.63
61641;HTU21D;62201;49.966;8.342;2022-11-15T01:29:02;8.07;106.55
61641;HTU21D;62201;49.966;8.342;2022-11-15T01:31:28;8.11;106.53
61641;HTU21D;62201;49.966;8.342;2022-11-15T01:33:53;8.11;106.52
61641;HTU21D;62201;49.966;8.342;2022-11-15T01:36:20;8.12;106.49
61641;HTU21D;62201;49.966;8.342;2022-11-15T01:38:56;8.15;106.43
61641;HTU21D;62201;49.966;8.342;2022-11-15T01:41:28;8.16;106.47
61641;HTU21D;62201;49.966;8.342;2022-11-15T01:43:56;8.18;106.48
61641;HTU21D;62201;49.966;8.342;2022-11-15T01:46:31;8.19;106.42
61641;HTU21D;62201;49.966;8.342;2022-11-15T01:49:02;8.20;106.29
61641;HTU21D;62201;49.966;8.342;2022-11-15T01:51:30;8.23;106.37
61641;HTU21D;62201;49.966;8.342;2022-11-15T01:54:02;8.24;106.21
61641;HTU21D;62201;49.966;8.342;2022-11-15T01:56:31;8.26;106.31
61641;HTU21D;62201;49.966;8.342;2022-11-15T01:59:01;8.29;106.22
61641;HTU21D;62201;49.966;8.342;2022-11-15T02:01:28;8.29;106.19
61641;HTU21D;62201;49.966;8.342;2022-11-15T02:04:02;8.31;106.18
61641;HTU21D;62201;49.966;8.342;2022-11-15T02:06:29;8.31;106.06
61641;HTU21D;62201;49.966;8.342;2022-11-15T02:08:54;8.30;105.91
61641;HTU21D;62201;49.966;8.342;2022-11-15T02:11:21;8.32;106.01
61641;HTU21D;62201;49.966;8.342;2022-11-15T02:13:47;8.33;106.01
61641;HTU21D;62201;49.966;8.342;2022-11-15T02:18:53;8.31;105.86
61641;HTU21D;62201;49.966;8.342;2022-11-15T02:24:24;8.29;105.79
61641;HTU21D;62201;49.966;8.342;2022-11-15T02:30:00;8.30;105.98
61641;HTU21D;62201;49.966;8.342;2022-11-15T02:32:40;8.31;105.99
61641;HTU21D;62201;49.966;8.342;2022-11-15T02:37:59;8.32;105.88
61641;HTU21D;62201;49.966;8.342;2022-11-15T02:43:11;8.32;105.86
61641;HTU21D;62201;49.966;8.342;2022-11-15T02:46:15;8.33;105.79
61641;HTU21D;62201;49.966;8.342;2022-11-15T02:48:43;8.33;105.90
61641;HTU21D;62201;49.966;8.342;2022-11-15T02:51:09;8.33;105.81
61641;HTU21D;62201;49.966;8.342;2022-11-15T02:53:35;8.31;105.71
61641;HTU21D;62201;49.966;8.342;2022-11-15T02:56:00;8.30;105.85
61641;HTU21D;62201;49.966;8.342;2022-11-15T03:01:03;8.24;105.75
61641;HTU21D;62201;49.966;8.342;2022-11-15T03:06:38;8.13;105.76
61641;HTU21D;62201;49.966;8.342;2022-11-15T03:09:08;8.13;106.10
61641;HTU21D;62201;49.966;8.342;2022-11-15T03:11:41;8.17;106.48
61641;HTU21D;62201;49.966;8.342;2022-11-15T03:14:32;8.20;106.82
61641;HTU21D;62201;49.966;8.342;2022-11-15T03:17:14;8.26;106.92
61641;HTU21D;62201;49.966;8.342;2022-11-15T03:19:47;8.30;106.88
61641;HTU21D;62201;49.966;8.342;2022-11-15T03:22:17;8.35;106.91
61641;HTU21D;62201;49.966;8.342;2022-11-15T03:24:45;8.41;106.85
61641;HTU21D;62201;49.966;8.342;2022-11-15T03:27:15;8.47;106.81
61641;HTU21D;62201;49.966;8.342;2022-11-15T03:29:47;8.55;106.88
61641;HTU21D;62201;49.966;8.342;2022-11-15T03:32:19;8.62;106.56
61641;HTU21D;62201;49.966;8.342;2022-11-15T03:34:53;8.68;106.19
61641;HTU21D;62201;49.966;8.342;2022-11-15T03:37:26;8.72;105.82
61641;HTU21D;62201;49.966;8.342;2022-11-15T03:39:54;8.76;105.65
61641;HTU21D;62201;49.966;8.342;2022-11-15T03:42:30;8.77;105.50
61641;HTU21D;62201;49.966;8.342;2022-11-15T03:45:02;8.79;105.40
61641;HTU21D;62201;49.966;8.342;2022-11-15T03:47:32;8.82;105.29
61641;HTU21D;62201;49.966;8.342;2022-11-15T03:50:08;8.83;105.29
61641;HTU21D;62201;49.966;8.342;2022-11-15T03:52:35;8.83;104.86
61641;HTU21D;62201;49.966;8.342;2022-11-15T03:55:02;8.89;105.21
61641;HTU21D;62201;49.966;8.342;2022-11-15T03:57:28;8.91;105.15
61641;HTU21D;62201;49.966;8.342;2022-11-15T03:59:53;8.93;105.07
61641;HTU21D;62201;49.966;8.342;2022-11-15T04:02:19;8.96;105.08
61641;HTU21D;62201;49.966;8.342;2022-11-15T04:04:45;8.98;105.00
61641;HTU21D;62201;49.966;8.342;2022-11-15T04:07:10;8.98;104.82
61641;HTU21D;62201;49.966;8.342;2022-11-15T04:09:35;9.00;105.03
61641;HTU21D;62201;49.966;8.342;2022-11-15T04:12:21;9.06;105.36
61641;HTU21D;62201;49.966;8.342;2022-11-15T04:14:59;9.24;105.72
61641;HTU21D;62201;49.966;8.342;2022-11-15T04:17:38;9.38;104.53
61641;HTU21D;62201;49.966;8.342;2022-11-15T04:20:05;9.46;104.04
61641;HTU21D;62201;49.966;8.342;2022-11-15T04:22:52;9.63;102.34
61641;HTU21D;62201;49.966;8.342;2022-11-15T04:25:36;9.74;101.86
61641;HTU21D;62201;49.966;8.342;2022-11-15T04:28:02;9.80;101.46
61641;HTU21D;62201;49.966;8.342;2022-11-15T04:30:27;9.83;100.67
61641;HTU21D;62201;49.966;8.342;2022-11-15T04:32:52;9.89;100.78
61641;HTU21D;62201;49.966;8.342;2022-11-15T04:35:18;9.95;100.60
61641;HTU21D;62201;49.966;8.342;2022-11-15T04:37:43;10.01;99.77
61641;HTU21D;62201;49.966;8.342;2022-11-15T04:40:08;10.06;99.55
61641;HTU21D;62201;49.966;8.342;2022-11-15T04:42:34;10.10;98.97
61641;HTU21D;62201;49.966;8.342;2022-11-15T04:44:59;10.18;98.19
61641;HTU21D;62201;49.966;8.342;2022-11-15T04:47:25;10.19;98.34
61641;HTU21D;62201;49.966;8.342;2022-11-15T04:49:50;10.25;97.99
61641;HTU21D;62201;49.966;8.342;2022-11-15T04:52:15;10.24;98.03
61641;HTU21D;62201;49.966;8.342;2022-11-15T04:54:41;10.24;98.19
61641;HTU21D;62201;49.966;8.342;2022-11-15T04:57:07;10.24;98.07
61641;HTU21D;62201;49.966;8.342;2022-11-15T04:59:33;10.26;97.78
61641;HTU21D;62201;49.966;8.342;2022-11-15T05:01:58;10.29;96.99
61641;HTU21D;62201;49.966;8.342;2022-11-15T05:04:24;10.31;97.21
61641;HTU21D;62201;49.966;8.342;2022-11-15T05:06:50;10.35;96.72
61641;HTU21D;62201;49.966;8.342;2022-11-15T05:09:17;10.37;96.57
61641;HTU21D;62201;49.966;8.342;2022-11-15T05:11:44;10.37;96.91
61641;HTU21D;62201;49.966;8.342;2022-11-15T05:14:09;10.36;96.78
61641;HTU21D;62201;49.966;8.342;2022-11-15T05:16:35;10.29;96.87
61641;HTU21D;62201;49.966;8.342;2022-11-15T05:19:01;10.26;97.35
61641;HTU21D;62201;49.966;8.342;2022-11-15T05:21:27;10.21;97.43
61641;HTU21D;62201;49.966;8.342;2022-11-15T05:23:52;10.11;97.51
61641;HTU21D;62201;49.966;8.342;2022-11-15T05:26:18;10.04;97.61
61641;HTU21D;62201;49.966;8.342;2022-11-15T05:28:44;9.97;98.00
61641;HTU21D;62201;49.966;8.342;2022-11-15T05:31:13;9.93;98.12
61641;HTU21D;62201;49.966;8.342;2022-11-15T05:33:40;9.90;98.13
61641;HTU21D;62201;49.966;8.342;2022-11-15T05:38:32;9.83;98.62
61641;HTU21D;62201;49.966;8.342;2022-11-15T05:40:59;9.83;98.69
61641;HTU21D;62201;49.966;8.342;2022-11-15T05:43:25;9.84;98.80
61641;HTU21D;62201;49.966;8.342;2022-11-15T05:45:51;9.84;98.81
61641;HTU21D;62201;49.966;8.342;2022-11-15T05:48:16;9.82;98.86
61641;HTU21D;62201;49.966;8.342;2022-11-15T05:50:44;9.84;99.13
61641;HTU21D;62201;49.966;8.342;2022-11-15T05:53:13;9.90;98.91
61641;HTU21D;62201;49.966;8.342;2022-11-15T05:55:40;9.96;98.54
61641;HTU21D;62201;49.966;8.342;2022-11-15T05:58:06;10.03;98.03
61641;HTU21D;62201;49.966;8.342;2022-11-15T06:00:32;10.07;97.58
61641;HTU21D;62201;49.966;8.342;2022-11-15T06:02:57;10.11;97.56
61641;HTU21D;62201;49.966;8.342;2022-11-15T06:05:22;10.11;97.87
61641;HTU21D;62201;49.966;8.342;2022-11-15T06:07:48;10.11;98.26
61641;HTU21D;62201;49.966;8.342;2022-11-15T06:10:13;10.10;98.37
61641;HTU21D;62201;49.966;8.342;2022-11-15T06:12:39;10.11;98.89
61641;HTU21D;62201;49.966;8.342;2022-11-15T06:15:04;10.12;98.93
61641;HTU21D;62201;49.966;8.342;2022-11-15T06:17:30;10.11;98.96
61641;HTU21D;62201;49.966;8.342;2022-11-15T06:19:55;10.13;99.09
61641;HTU21D;62201;49.966;8.342;2022-11-15T06:22:20;10.13;98.93
61641;HTU21D;62201;49.966;8.342;2022-11-15T06:24:46;10.11;99.18
61641;HTU21D;62201;49.966;8.342;2022-11-15T06:27:11;10.08;99.25
61641;HTU21D;62201;49.966;8.342;2022-11-15T06:29:37;10.06;99.54
61641;HTU21D;62201;49.966;8.342;2022-11-15T06:32:03;10.06;99.73
61641;HTU21D;62201;49.966;8.342;2022-11-15T06:34:28;10.07;100.02
61641;HTU21D;62201;49.966;8.342;2022-11-15T06:36:53;10.06;99.87
61641;HTU21D;62201;49.966;8.342;2022-11-15T06:39:19;10.06;100.17
61641;HTU21D;62201;49.966;8.342;2022-11-15T06:41:44;10.07;100.41
61641;HTU21D;62201;49.966;8.342;2022-11-15T06:44:10;10.07;100.40
61641;HTU21D;62201;49.966;8.342;2022-11-15T06:46:35;10.05;100.35
61641;HTU21D;62201;49.966;8.342;2022-11-15T06:49:00;10.03;100.71
61641;HTU21D;62201;49.966;8.342;2022-11-15T06:51:26;10.01;100.80
61641;HTU21D;62201;49.966;8.342;2022-11-15T06:53:51;10.04;101.23
61641;HTU21D;62201;49.966;8.342;2022-11-15T06:56:16;10.09;101.25
61641;HTU21D;62201;49.966;8.342;2022-11-15T06:58:42;10.13;101.09
61641;HTU21D;62201;49.966;8.342;2022-11-15T07:01:10;10.16;100.91
61641;HTU21D;62201;49.966;8.342;2022-11-15T07:03:40;10.21;100.91
61641;HTU21D;62201;49.966;8.342;2022-11-15T07:06:07;10.23;100.83
61641;HTU21D;62201;49.966;8.342;2022-11-15T07:08:33;10.25;100.58
61641;HTU21D;62201;49.966;8.342;2022-11-15T07:10:59;10.26;100.72
61641;HTU21D;62201;49.966;8.342;2022-11-15T07:13:27;10.27;100.46
61641;HTU21D;62201;49.966;8.342;2022-11-15T07:15:53;10.28;100.21
61641;HTU21D;62201;49.966;8.342;2022-11-15T07:18:18;10.33;100.51
61641;HTU21D;62201;49.966;8.342;2022-11-15T07:20:44;10.37;100.46
61641;HTU21D;62201;49.966;8.342;2022-11-15T07:23:09;10.41;100.38
61641;HTU21D;62201;49.966;8.342;2022-11-15T07:25:35;10.43;100.08
61641;HTU21D;62201;49.966;8.342;2022-11-15T07:28:01;10.42;100.11
61641;HTU21D;62201;49.966;8.342;2022-11-15T07:30:26;10.46;100.02
61641;HTU21D;62201;49.966;8.342;2022-11-15T07:33:00;10.51;99.92
61641;HTU21D;62201;49.966;8.342;2022-11-15T07:35:26;10.54;99.83
61641;HTU21D;62201;49.966;8.342;2022-11-15T07:38:00;10.58;99.32
61641;HTU21D;62201;49.966;8.342;2022-11-15T07:40:27;10.63;99.18
61641;HTU21D;62201;49.966;8.342;2022-11-15T07:42:58;10.69;98.89
61641;HTU21D;62201;49.966;8.342;2022-11-15T07:45:24;10.75;98.23
61641;HTU21D;62201;49.966;8.342;2022-11-15T07:47:52;10.83;98.08
61641;HTU21D;62201;49.966;8.342;2022-11-15T07:50:17;10.90;97.78
61641;HTU21D;62201;49.966;8.342;2022-11-15T07:52:44;10.97;96.97
61641;HTU21D;62201;49.966;8.342;2022-11-15T07:55:09;11.02;97.00
61641;HTU21D;62201;49.966;8.342;2022-11-15T07:57:35;11.05;96.02
61641;HTU21D;62201;49.966;8.342;2022-11-15T08:00:00;11.11;96.55
61641;HTU21D;62201;49.966;8.342;2022-11-15T08:02:26;11.09;96.69
61641;HTU21D;62201;49.966;8.342;2022-11-15T08:04:51;11.11;96.70
61641;HTU21D;62201;49.966;8.342;2022-11-15T08:07:16;11.16;96.90
61641;HTU21D;62201;49.966;8.342;2022-11-15T08:09:42;11.24;96.56
61641;HTU21D;62201;49.966;8.342;2022-11-15T08:12:07;11.27;96.09
61641;HTU21D;62201;49.966;8.342;2022-11-15T08:14:34;11.34;96.33
61641;HTU21D;62201;49.966;8.342;2022-11-15T08:16:59;11.40;95.83
61641;HTU21D;62201;49.966;8.342;2022-11-15T08:19:25;11.40;95.80
61641;HTU21D;62201;49.966;8.342;2022-11-15T08:21:50;11.34;95.07
61641;HTU21D;62201;49.966;8.342;2022-11-15T08:24:16;11.28;95.76
61641;HTU21D;62201;49.966;8.342;2022-11-15T08:26:41;11.27;95.99
61641;HTU21D;62201;49.966;8.342;2022-11-15T08:29:07;11.25;96.10
61641;HTU21D;62201;49.966;8.342;2022-11-15T08:31:34;11.25;96.28
61641;HTU21D;62201;49.966;8.342;2022-11-15T08:34:00;11.26;96.40
61641;HTU21D;62201;49.966;8.342;2022-11-15T08:36:26;11.27;96.65
61641;HTU21D;62201;49.966;8.342;2022-11-15T08:38:51;11.27;96.76
61641;HTU21D;62201;49.966;8.342;2022-11-15T08:41:25;11.24;96.88
61641;HTU21D;62201;49.966;8.342;2022-11-15T08:43:51;11.26;96.97
61641;HTU21D;62201;49.966;8.342;2022-11-15T08:46:16;11.26;96.85
61641;HTU21D;62201;49.966;8.342;2022-11-15T08:48:43;11.26;96.69
61641;HTU21D;62201;49.966;8.342;2022-11-15T08:51:08;11.28;96.57
61641;HTU21D;62201;49.966;8.342;2022-11-15T08:53:34;11.30;96.49
61641;HTU21D;62201;49.966;8.342;2022-11-15T08:55:59;11.34;96.52
61641;HTU21D;62201;49.966;8.342;2022-11-15T08:58:25;11.39;96.61
61641;HTU21D;62201;49.966;8.342;2022-11-15T09:00:50;11.43;96.65
61641;HTU21D;62201;49.966;8.342;2022-11-15T09:03:16;11.43;96.59
61641;HTU21D;62201;49.966;8.342;2022-11-15T09:05:41;11.44;96.54
61641;HTU21D;62201;49.966;8.342;2022-11-15T09:08:07;11.45;96.37
61641;HTU21D;62201;49.966;8.342;2022-11-15T09:10:33;11.49;96.60
61641;HTU21D;62201;49.966;8.342;2022-11-15T09:12:58;11.49;96.67
61641;HTU21D;62201;49.966;8.342;2022-11-15T09:15:23;11.49;96.96
61641;HTU21D;62201;49.966;8.342;2022-11-15T09:17:49;11.52;96.89
61641;HTU21D;62201;49.966;8.342;2022-11-15T09:20:14;11.52;96.63
61641;HTU21D;62201;49.966;8.342;2022-11-15T09:22:40;11.52;96.47
61641;HTU21D;62201;49.966;8.342;2022-11-15T09:25:06;11.53;96.37
61641;HTU21D;62201;49.966;8.342;2022-11-15T09:27:32;11.55;96.42
61641;HTU21D;62201;49.966;8.342;2022-11-15T09:29:57;11.56;96.46
61641;HTU21D;62201;49.966;8.342;2022-11-15T09:32:23;11.61;96.05
61641;HTU21D;62201;49.966;8.342;2022-11-15T09:34:49;11.64;95.96
61641;HTU21D;62201;49.966;8.342;2022-11-15T09:37:15;11.68;96.65
61641;HTU21D;62201;49.966;8.342;2022-11-15T09:39:40;11.70;97.45
61641;HTU21D;62201;49.966;8.342;2022-11-15T09:42:38;11.73;97.24
61641;HTU21D;62201;49.966;8.342;2022-11-15T09:45:21;11.78;97.51
61641;HTU21D;62201;49.966;8.342;2022-11-15T09:48:18;11.81;97.20
61641;HTU21D;62201;49.966;8.342;2022-11-15T09:50:49;11.81;97.26
61641;HTU21D;62201;49.966;8.342;2022-11-15T09:53:34;11.86;97.36
61641;HTU21D;62201;49.966;8.342;2022-11-15T09:56:10;11.86;96.79
61641;HTU21D;62201;49.966;8.342;2022-11-15T10:02:39;11.89;96.26
61641;HTU21D;62201;49.966;8.342;2022-11-15T10:04:43;11.94;95.76
61641;HTU21D;62201;49.966;8.342;2022-11-15T10:07:23;11.98;95.41
61641;HTU21D;62201;49.966;8.342;2022-11-15T10:12:34;12.02;94.62
61641;HTU21D;62201;49.966;8.342;2022-11-15T10:15:02;12.00;94.94
61641;HTU21D;62201;49.966;8.342;2022-11-15T10:20:20;12.03;94.66
61641;HTU21D;62201;49.966;8.342;2022-11-15T10:23:06;12.06;94.65
61641;HTU21D;62201;49.966;8.342;2022-11-15T10:25:35;12.07;94.46
61641;HTU21D;62201;49.966;8.342;2022-11-15T10:30:58;12.06;94.25
61641;HTU21D;62201;49.966;8.342;2022-11-15T10:33:33;12.04;94.07
61641;HTU21D;62201;49.966;8.342;2022-11-15T10:38:35;12.00;94.80
61641;HTU21D;62201;49.966;8.342;2022-11-15T10:41:36;12.01;94.59
61641;HTU21D;62201;49.966;8.342;2022-11-15T10:46:44;12.13;94.52
61641;HTU21D;62201;49.966;8.342;2022-11-15T10:49:20;12.20;94.47
61641;HTU21D;62201;49.966;8.342;2022-11-15T10:51:53;12.26;94.41
61641;HTU21D;62201;49.966;8.342;2022-11-15T10:54:24;12.34;93.61
61641;HTU21D;62201;49.966;8.342;2022-11-15T10:56:53;12.40;93.28
61641;HTU21D;62201;49.966;8.342;2022-11-15T10:59:27;12.47;93.88
61641;HTU21D;62201;49.966;8.342;2022-11-15T11:01:53;12.53;92.53
61641;HTU21D;62201;49.966;8.342;2022-11-15T11:04:19;12.56;93.15
61641;HTU21D;62201;49.966;8.342;2022-11-15T11:06:49;12.53;92.69
61641;HTU21D;62201;49.966;8.342;2022-11-15T11:09:36;12.63;92.19
61641;HTU21D;62201;49.966;8.342;2022-11-15T11:12:04;12.90;92.33
61641;HTU21D;62201;49.966;8.342;2022-11-15T11:14:32;13.07;91.59
61641;HTU21D;62201;49.966;8.342;2022-11-15T11:19:59;13.00;87.67
61641;HTU21D;62201;49.966;8.342;2022-11-15T11:22:50;12.97;88.43
61641;HTU21D;62201;49.966;8.342;2022-11-15T11:31:20;13.10;87.38
61641;HTU21D;62201;49.966;8.342;2022-11-15T11:33:58;13.10;88.36
61641;HTU21D;62201;49.966;8.342;2022-11-15T11:39:11;13.14;88.40
61641;HTU21D;62201;49.966;8.342;2022-11-15T11:41:55;13.09;88.23
61641;HTU21D;62201;49.966;8.342;2022-11-15T11:47:30;13.11;87.43
61641;HTU21D;62201;49.966;8.342;2022-11-15T11:50:12;13.14;87.37
61641;HTU21D;62201;49.966;8.342;2022-11-15T11:52:56;13.19;87.22
61641;HTU21D;62201;49.966;8.342;2022-11-15T11:55:29;13.19;87.51
61641;HTU21D;62201;49.966;8.342;2022-11-15T11:58:22;13.22;86.69
61641;HTU21D;62201;49.966;8.342;2022-11-15T12:00:57;13.19;87.71
61641;HTU21D;62201;49.966;8.342;2022-11-15T12:03:38;13.17;87.53
61641;HTU21D;62201;49.966;8.342;2022-11-15T12:08:52;13.14;86.96
61641;HTU21D;62201;49.966;8.342;2022-11-15T12:11:32;13.15;87.78
61641;HTU21D;62201;49.966;8.342;2022-11-15T12:14:03;13.22;88.02
61641;HTU21D;62201;49.966;8.342;2022-11-15T12:16:31;13.31;87.12
61641;HTU21D;62201;49.966;8.342;2022-11-15T12:19:03;13.38;87.68
61641;HTU21D;62201;49.966;8.342;2022-11-15T12:22:08;13.38;86.35
61641;HTU21D;62201;49.966;8.342;2022-11-15T12:25:07;13.33;86.40
61641;HTU21D;62201;49.966;8.342;2022-11-15T12:27:37;13.27;86.10
61641;HTU21D;62201;49.966;8.342;2022-11-15T12:30:10;13.26;86.67
61641;HTU21D;62201;49.966;8.342;2022-11-15T12:32:40;13.22;86.77
61641;HTU21D;62201;49.966;8.342;2022-11-15T12:35:39;13.30;85.68
61641;HTU21D;62201;49.966;8.342;2022-11-15T12:38:10;13.26;86.03
61641;HTU21D;62201;49.966;8.342;2022-11-15T12:40:37;13.25;86.66
61641;HTU21D;62201;49.966;8.342;2022-11-15T12:45:45;13.27;85.93
61641;HTU21D;62201;49.966;8.342;2022-11-15T12:51:01;13.49;86.10
61641;HTU21D;62201;49.966;8.342;2022-11-15T12:53:29;13.61;86.36
61641;HTU21D;62201;49.966;8.342;2022-11-15T12:58:56;13.66;84.44
61641;HTU21D;62201;49.966;8.342;2022-11-15T13:06:43;13.81;85.64
61641;HTU21D;62201;49.966;8.342;2022-11-15T13:11:58;13.85;84.68
61641;HTU21D;62201;49.966;8.342;2022-11-15T13:17:03;13.90;84.81
61641;HTU21D;62201;49.966;8.342;2022-11-15T13:19:35;13.90;85.03
61641;HTU21D;62201;49.966;8.342;2022-11-15T13:22:04;13.89;84.46
61641;HTU21D;62201;49.966;8.342;2022-11-15T13:24:48;13.82;85.06
61641;HTU21D;62201;49.966;8.342;2022-11-15T13:27:19;13.73;85.19
61641;HTU21D;62201;49.966;8.342;2022-11-15T13:29:45;13.73;85.22
61641;HTU21D;62201;49.966;8.342;2022-11-15T13:32:14;13.68;85.29
61641;HTU21D;62201;49.966;8.342;2022-11-15T13:34:44;13.68;85.49
61641;HTU21D;62201;49.966;8.342;2022-11-15T13:37:28;13.74;85.58
61641;HTU21D;62201;49.966;8.342;2022-11-15T13:39:55;13.73;85.35
61641;HTU21D;62201;49.966;8.342;2022-11-15T13:42:34;13.71;86.22
61641;HTU21D;62201;49.966;8.342;2022-11-15T13:45:02;13.70;85.77
61641;HTU21D;62201;49.966;8.342;2022-11-15T13:47:29;13.73;85.73
61641;HTU21D;62201;49.966;8.342;2022-11-15T13:49:59;13.70;85.89
61641;HTU21D;62201;49.966;8.342;2022-11-15T13:52:33;13.68;85.81
61641;HTU21D;62201;49.966;8.342;2022-11-15T13:55:10;13.67;85.99
61641;HTU21D;62201;49.966;8.342;2022-11-15T14:00:32;13.60;86.20
61641;HTU21D;62201;49.966;8.342;2022-11-15T14:03:18;13.56;86.63
61641;HTU21D;62201;49.966;8.342;2022-11-15T14:06:09;13.54;86.86
61641;HTU21D;62201;49.966;8.342;2022-11-15T14:08:39;13.55;87.07
61641;HTU21D;62201;49.966;8.342;2022-11-15T14:11:26;13.52;87.18
61641;HTU21D;62201;49.966;8.342;2022-11-15T14:19:11;13.47;87.60
61641;HTU21D;62201;49.966;8.342;2022-11-15T14:21:37;13.47;87.83
61641;HTU21D;62201;49.966;8.342;2022-11-15T14:24:30;13.45;87.98
61641;HTU21D;62201;49.966;8.342;2022-11-15T14:26:56;13.43;88.01
61641;HTU21D;62201;49.966;8.342;2022-11-15T14:29:25;13.38;88.32
61641;HTU21D;62201;49.966;8.342;2022-11-15T14:31:52;13.35;88.55
61641;HTU21D;62201;49.966;8.342;2022-11-15T14:34:17;13.32;88.73
61641;HTU21D;62201;49.966;8.342;2022-11-15T14:36:43;13.27;89.09
61641;HTU21D;62201;49.966;8.342;2022-11-15T14:39:09;13.26;89.15
61641;HTU21D;62201;49.966;8.342;2022-11-15T14:41:35;13.25;89.25
61641;HTU21D;62201;49.966;8.342;2022-11-15T14:44:05;13.23;89.70
61641;HTU21D;62201;49.966;8.342;2022-11-15T14:46:31;13.23;89.76
61641;HTU21D;62201;49.966;8.342;2022-11-15T14:48:56;13.22;89.86
61641;HTU21D;62201;49.966;8.342;2022-11-15T14:51:22;13.21;89.90
61641;HTU21D;62201;49.966;8.342;2022-11-15T14:53:48;13.21;90.04
61641;HTU21D;62201;49.966;8.342;2022-11-15T14:56:14;13.20;90.31
61641;HTU21D;62201;49.966;8.342;2022-11-15T14:58:39;13.21;90.24
61641;HTU21D;62201;49.966;8.342;2022-11-15T15:01:21;13.17;90.53
61641;HTU21D;62201;49.966;8.342;2022-11-15T15:03:47;13.16;90.57
61641;HTU21D;62201;49.966;8.342;2022-11-15T15:06:12;13.15;90.48
61641;HTU21D;62201;49.966;8.342;2022-11-15T15:08:39;13.12;90.41
61641;HTU21D;62201;49.966;8.342;2022-11-15T15:11:14;13.10;90.46
61641;HTU21D;62201;49.966;8.342;2022-11-15T15:13:41;13.04;90.55
61641;HTU21D;62201;49.966;8.342;2022-11-15T15:16:06;13.01;90.60
61641;HTU21D;62201;49.966;8.342;2022-11-15T15:18:31;12.95;90.72
61641;HTU21D;62201;49.966;8.342;2022-11-15T15:20:58;12.90;90.81
61641;HTU21D;62201;49.966;8.342;2022-11-15T15:23:32;12.84;90.93
61641;HTU21D;62201;49.966;8.342;2022-11-15T15:25:58;12.79;90.92
61641;HTU21D;62201;49.966;8.342;2022-11-15T15:28:24;12.78;90.95
61641;HTU21D;62201;49.966;8.342;2022-11-15T15:30:50;12.73;90.94
61641;HTU21D;62201;49.966;8.342;2022-11-15T15:33:16;12.72;91.05
61641;HTU21D;62201;49.966;8.342;2022-11-15T15:35:41;12.69;91.11
61641;HTU21D;62201;49.966;8.342;2022-11-15T15:38:11;12.65;91.10
61641;HTU21D;62201;49.966;8.342;2022-11-15T15:40:37;12.62;91.07
61641;HTU21D;62201;49.966;8.342;2022-11-15T15:43:02;12.63;91.08
61641;HTU21D;62201;49.966;8.342;2022-11-15T15:45:28;12.58;91.03
61641;HTU21D;62201;49.966;8.342;2022-11-15T15:47:55;12.56;91.19
61641;HTU21D;62201;49.966;8.342;2022-11-15T15:50:29;12.53;91.37
61641;HTU21D;62201;49.966;8.342;2022-11-15T15:52:57;12.48;91.50
61641;HTU21D;62201;49.966;8.342;2022-11-15T15:55:23;12.46;91.59
61641;HTU21D;62201;49.966;8.342;2022-11-15T15:57:49;12.44;91.63
61641;HTU21D;62201;49.966;8.342;2022-11-15T16:00:15;12.42;91.66
61641;HTU21D;62201;49.966;8.342;2022-11-15T16:02:41;12.38;91.84
61641;HTU21D;62201;49.966;8.342;2022-11-15T16:05:07;12.35;91.93
61641;HTU21D;62201;49.966;8.342;2022-11-15T16:07:33;12.31;92.21
61641;HTU21D;62201;49.966;8.342;2022-11-15T16:09:58;12.31;92.15
61641;HTU21D;62201;49.966;8.342;2022-11-15T16:12:34;12.30;92.33
61641;HTU21D;62201;49.966;8.342;2022-11-15T16:15:00;12.28;92.47
61641;HTU21D;62201;49.966;8.342;2022-11-15T16:17:35;12.25;92.70
61641;HTU21D;62201;49.966;8.342;2022-11-15T16:20:03;12.19;92.99
61641;HTU21D;62201;49.966;8.342;2022-11-15T16:22:28;12.15;93.13
61641;HTU21D;62201;49.966;8.342;2022-11-15T16:24:54;12.10;93.17
61641;HTU21D;62201;49.966;8.342;2022-11-15T16:27:20;12.05;93.43
61641;HTU21D;62201;49.966;8.342;2022-11-15T16:29:47;11.99;93.59
61641;HTU21D;62201;49.966;8.342;2022-11-15T16:32:13;11.93;93.92
61641;HTU21D;62201;49.966;8.342;2022-11-15T16:34:38;11.91;94.15
61641;HTU21D;62201;49.966;8.342;2022-11-15T16:37:04;11.90;94.57
61641;HTU21D;62201;49.966;8.342;2022-11-15T16:39:30;11.89;94.61
61641;HTU21D;62201;49.966;8.342;2022-11-15T16:41:59;11.86;94.64
61641;HTU21D;62201;49.966;8.342;2022-11-15T16:44:25;11.85;94.63
61641;HTU21D;62201;49.966;8.342;2022-11-15T16:46:51;11.82;94.81
61641;HTU21D;62201;49.966;8.342;2022-11-15T16:49:18;11.82;95.07
61641;HTU21D;62201;49.966;8.342;2022-11-15T16:51:45;11.79;95.10